sensor_id;sensor_type;location;lat;lon;timestamp;temperature;humidity
11095;DHT22;5601;44.490;11.400;2022-12-17T00:00:41;5.20;99.90
11095;DHT22;5601;44.490;11.400;2022-12-17T00:03:27;5.30;99.90
11095;DHT22;5601;44.490;11.400;2022-12-17T00:06:11;5.30;99.90
11095;DHT22;5601;44.490;11.400;2022-12-17T00:08:55;5.40;99.90
11095;DHT22;5601;44.490;11.400;2022-12-17T00:11:39;5.50;99.90
11095;DHT22;5601;44.490;11.400;2022-12-17T00:14:23;5.50;99.90
11095;DHT22;5601;44.490;11.400;2022-12-17T00:17:07;5.50;99.90
11095;DHT22;5601;44.490;11.400;2022-12-17T00:19:53;5.50;99.90
11095;DHT22;5601;44.490;11.400;2022-12-17T00:22:56;5.60;99.90
11095;DHT22;5601;44.490;11.400;2022-12-17T00:25:41;5.60;99.90
11095;DHT22;5601;44.490;11.400;2022-12-17T00:28:25;5.60;99.90
11095;DHT22;5601;44.490;11.400;2022-12-17T00:31:09;5.70;99.90
11095;DHT22;5601;44.490;11.400;2022-12-17T00:33:53;5.70;99.90
11095;DHT22;5601;44.490;11.400;2022-12-17T00:36:39;5.70;99.90
11095;DHT22;5601;44.490;11.400;2022-12-17T00:39:23;5.70;99.90
11095;DHT22;5601;44.490;11.400;2022-12-17T00:42:07;5.70;99.90
11095;DHT22;5601;44.490;11.400;2022-12-17T00:44:51;5.70;99.90
11095;DHT22;5601;44.490;11.400;2022-12-17T00:47:35;5.70;99.90
11095;DHT22;5601;44.490;11.400;2022-12-17T00:50:20;5.70;99.90
11095;DHT22;5601;44.490;11.400;2022-12-17T00:53:05;5.70;99.90
11095;DHT22;5601;44.490;11.400;2022-12-17T00:55:50;5.70;99.90
11095;DHT22;5601;44.490;11.400;2022-12-17T00:58:34;5.60;99.90
11095;DHT22;5601;44.490;11.400;2022-12-17T01:01:19;5.60;99.90
11095;DHT22;5601;44.490;11.400;2022-12-17T01:04:03;5.60;99.90
11095;DHT22;5601;44.490;11.400;2022-12-17T01:06:47;5.50;99.90
11095;DHT22;5601;44.490;11.400;2022-12-17T01:09:33;5.50;99.90
11095;DHT22;5601;44.490;11.400;2022-12-17T01:12:18;5.50;99.90
11095;DHT22;5601;44.490;11.400;2022-12-17T01:15:02;5.50;99.90
11095;DHT22;5601;44.490;11.400;2022-12-17T01:17:46;5.50;99.90
11095;DHT22;5601;44.490;11.400;2022-12-17T01:20:30;5.60;99.90
11095;DHT22;5601;44.490;11.400;2022-12-17T01:23:14;5.60;99.90
11095;DHT22;5601;44.490;11.400;2022-12-17T01:26:00;5.70;99.90
11095;DHT22;5601;44.490;11.400;2022-12-17T01:28:41;5.60;99.90
11095;DHT22;5601;44.490;11.400;2022-12-17T01:31:25;5.70;99.90
11095;DHT22;5601;44.490;11.400;2022-12-17T01:34:10;5.70;99.90
11095;DHT22;5601;44.490;11.400;2022-12-17T01:36:54;5.70;99.90
11095;DHT22;5601;44.490;11.400;2022-12-17T01:39:38;5.70;99.90
11095;DHT22;5601;44.490;11.400;2022-12-17T01:42:24;5.80;99.90
11095;DHT22;5601;44.490;11.400;2022-12-17T01:45:09;5.80;99.90
11095;DHT22;5601;44.490;11.400;2022-12-17T01:47:54;5.80;99.90
11095;DHT22;5601;44.490;11.400;2022-12-17T01:50:42;5.80;99.90
11095;DHT22;5601;44.490;11.400;2022-12-17T01:53:28;5.80;99.90
11095;DHT22;5601;44.490;11.400;2022-12-17T01:56:15;5.70;99.90
11095;DHT22;5601;44.490;11.400;2022-12-17T01:59:01;5.60;99.90
11095;DHT22;5601;44.490;11.400;2022-12-17T02:01:45;5.60;99.90
11095;DHT22;5601;44.490;11.400;2022-12-17T02:04:29;5.50;99.90
11095;DHT22;5601;44.490;11.400;2022-12-17T02:07:18;5.50;99.90
11095;DHT22;5601;44.490;11.400;2022-12-17T02:10:06;5.50;99.90
11095;DHT22;5601;44.490;11.400;2022-12-17T02:12:52;5.50;99.90
11095;DHT22;5601;44.490;11.400;2022-12-17T02:15:40;5.50;99.90
11095;DHT22;5601;44.490;11.400;2022-12-17T02:18:29;5.50;99.90
11095;DHT22;5601;44.490;11.400;2022-12-17T02:21:15;5.50;99.90
11095;DHT22;5601;44.490;11.400;2022-12-17T02:24:01;5.50;99.90
11095;DHT22;5601;44.490;11.400;2022-12-17T02:26:48;5.50;99.90
11095;DHT22;5601;44.490;11.400;2022-12-17T02:29:34;5.50;99.90
11095;DHT22;5601;44.490;11.400;2022-12-17T02:32:19;5.50;99.90
11095;DHT22;5601;44.490;11.400;2022-12-17T02:35:06;5.50;99.90
11095;DHT22;5601;44.490;11.400;2022-12-17T02:37:53;5.50;99.90
11095;DHT22;5601;44.490;11.400;2022-12-17T02:40:37;5.60;99.90
11095;DHT22;5601;44.490;11.400;2022-12-17T02:43:23;5.60;99.90
11095;DHT22;5601;44.490;11.400;2022-12-17T02:46:08;5.60;99.90
11095;DHT22;5601;44.490;11.400;2022-12-17T02:48:53;5.70;99.90
11095;DHT22;5601;44.490;11.400;2022-12-17T02:51:37;5.80;99.90
11095;DHT22;5601;44.490;11.400;2022-12-17T02:54:21;5.80;99.90
11095;DHT22;5601;44.490;11.400;2022-12-17T02:57:05;5.80;99.90
11095;DHT22;5601;44.490;11.400;2022-12-17T02:59:51;5.90;99.90
11095;DHT22;5601;44.490;11.400;2022-12-17T03:02:36;5.90;99.90
11095;DHT22;5601;44.490;11.400;2022-12-17T03:05:20;5.90;99.90
11095;DHT22;5601;44.490;11.400;2022-12-17T03:08:04;6.00;99.90
11095;DHT22;5601;44.490;11.400;2022-12-17T03:10:48;6.00;99.90
11095;DHT22;5601;44.490;11.400;2022-12-17T03:13:32;6.00;99.90
11095;DHT22;5601;44.490;11.400;2022-12-17T03:16:18;6.00;99.90
11095;DHT22;5601;44.490;11.400;2022-12-17T03:19:03;6.10;99.90
11095;DHT22;5601;44.490;11.400;2022-12-17T03:21:47;6.10;99.90
11095;DHT22;5601;44.490;11.400;2022-12-17T03:24:31;6.20;99.90
11095;DHT22;5601;44.490;11.400;2022-12-17T03:27:14;6.20;99.90
11095;DHT22;5601;44.490;11.400;2022-12-17T03:29:59;6.20;99.90
11095;DHT22;5601;44.490;11.400;2022-12-17T03:32:45;6.20;99.90
11095;DHT22;5601;44.490;11.400;2022-12-17T03:35:29;6.20;99.90
11095;DHT22;5601;44.490;11.400;2022-12-17T03:38:14;6.20;99.90
11095;DHT22;5601;44.490;11.400;2022-12-17T03:40:57;6.30;99.90
11095;DHT22;5601;44.490;11.400;2022-12-17T03:43:41;6.30;99.90
11095;DHT22;5601;44.490;11.400;2022-12-17T03:46:26;6.30;99.90
11095;DHT22;5601;44.490;11.400;2022-12-17T03:49:12;6.30;99.90
11095;DHT22;5601;44.490;11.400;2022-12-17T03:51:56;6.30;99.90
11095;DHT22;5601;44.490;11.400;2022-12-17T03:54:40;6.30;99.90
11095;DHT22;5601;44.490;11.400;2022-12-17T03:57:25;6.40;99.90
11095;DHT22;5601;44.490;11.400;2022-12-17T04:00:09;6.40;99.90
11095;DHT22;5601;44.490;11.400;2022-12-17T04:02:53;6.40;99.90
11095;DHT22;5601;44.490;11.400;2022-12-17T04:05:39;6.40;99.90
11095;DHT22;5601;44.490;11.400;2022-12-17T04:08:24;6.30;99.90
11095;DHT22;5601;44.490;11.400;2022-12-17T04:11:08;6.30;99.90
11095;DHT22;5601;44.490;11.400;2022-12-17T04:13:53;6.30;99.90
11095;DHT22;5601;44.490;11.400;2022-12-17T04:16:37;6.30;99.90
11095;DHT22;5601;44.490;11.400;2022-12-17T04:19:22;6.20;99.90
11095;DHT22;5601;44.490;11.400;2022-12-17T04:22:07;6.20;99.90
11095;DHT22;5601;44.490;11.400;2022-12-17T04:24:52;6.20;99.90
11095;DHT22;5601;44.490;11.400;2022-12-17T04:27:36;6.10;99.90
11095;DHT22;5601;44.490;11.400;2022-12-17T04:30:20;6.10;99.90
11095;DHT22;5601;44.490;11.400;2022-12-17T04:33:04;6.00;99.90
11095;DHT22;5601;44.490;11.400;2022-12-17T04:35:49;5.90;99.90
11095;DHT22;5601;44.490;11.400;2022-12-17T04:38:35;5.90;99.90
11095;DHT22;5601;44.490;11.400;2022-12-17T04:41:19;5.90;99.90
11095;DHT22;5601;44.490;11.400;2022-12-17T04:44:03;5.90;99.90
11095;DHT22;5601;44.490;11.400;2022-12-17T04:46:47;5.90;99.90
11095;DHT22;5601;44.490;11.400;2022-12-17T04:49:40;5.90;99.90
11095;DHT22;5601;44.490;11.400;2022-12-17T04:52:25;5.90;99.90
11095;DHT22;5601;44.490;11.400;2022-12-17T04:55:10;5.80;99.90
11095;DHT22;5601;44.490;11.400;2022-12-17T04:58:00;5.80;99.90
11095;DHT22;5601;44.490;11.400;2022-12-17T05:00:44;5.80;99.90
11095;DHT22;5601;44.490;11.400;2022-12-17T05:03:28;5.80;99.90
11095;DHT22;5601;44.490;11.400;2022-12-17T05:06:12;5.70;99.90
11095;DHT22;5601;44.490;11.400;2022-12-17T05:08:56;5.70;99.90
11095;DHT22;5601;44.490;11.400;2022-12-17T05:11:42;5.70;99.90
11095;DHT22;5601;44.490;11.400;2022-12-17T05:14:27;5.60;99.90
11095;DHT22;5601;44.490;11.400;2022-12-17T05:17:11;5.60;99.90
11095;DHT22;5601;44.490;11.400;2022-12-17T05:19:55;5.60;99.90
11095;DHT22;5601;44.490;11.400;2022-12-17T05:22:39;5.60;99.90
11095;DHT22;5601;44.490;11.400;2022-12-17T05:25:23;5.50;99.90
11095;DHT22;5601;44.490;11.400;2022-12-17T05:28:09;5.50;99.90
11095;DHT22;5601;44.490;11.400;2022-12-17T05:30:54;5.50;99.90
11095;DHT22;5601;44.490;11.400;2022-12-17T05:33:38;5.40;99.90
11095;DHT22;5601;44.490;11.400;2022-12-17T05:36:22;5.40;99.90
11095;DHT22;5601;44.490;11.400;2022-12-17T05:39:07;5.40;99.90
11095;DHT22;5601;44.490;11.400;2022-12-17T05:41:51;5.30;99.90
11095;DHT22;5601;44.490;11.400;2022-12-17T05:44:37;5.30;99.90
11095;DHT22;5601;44.490;11.400;2022-12-17T05:47:21;5.40;99.90
11095;DHT22;5601;44.490;11.400;2022-12-17T05:50:05;5.40;99.90
11095;DHT22;5601;44.490;11.400;2022-12-17T05:52:49;5.40;99.90
11095;DHT22;5601;44.490;11.400;2022-12-17T05:55:34;5.40;99.90
11095;DHT22;5601;44.490;11.400;2022-12-17T05:58:18;5.30;99.90
11095;DHT22;5601;44.490;11.400;2022-12-17T06:01:04;5.30;99.90
11095;DHT22;5601;44.490;11.400;2022-12-17T06:03:48;5.30;99.90
11095;DHT22;5601;44.490;11.400;2022-12-17T06:06:35;5.40;99.90
11095;DHT22;5601;44.490;11.400;2022-12-17T06:09:19;5.50;99.90
11095;DHT22;5601;44.490;11.400;2022-12-17T06:12:04;5.50;99.90
11095;DHT22;5601;44.490;11.400;2022-12-17T06:14:48;5.60;99.90
11095;DHT22;5601;44.490;11.400;2022-12-17T06:17:34;5.60;99.90
11095;DHT22;5601;44.490;11.400;2022-12-17T06:20:18;5.70;99.90
11095;DHT22;5601;44.490;11.400;2022-12-17T06:23:03;5.70;99.90
11095;DHT22;5601;44.490;11.400;2022-12-17T06:25:48;5.70;99.90
11095;DHT22;5601;44.490;11.400;2022-12-17T06:28:32;5.70;99.90
11095;DHT22;5601;44.490;11.400;2022-12-17T06:31:16;5.70;99.90
11095;DHT22;5601;44.490;11.400;2022-12-17T06:34:02;5.60;99.90
11095;DHT22;5601;44.490;11.400;2022-12-17T06:36:46;5.60;99.90
11095;DHT22;5601;44.490;11.400;2022-12-17T06:39:30;5.60;99.90
11095;DHT22;5601;44.490;11.400;2022-12-17T06:42:14;5.70;99.90
11095;DHT22;5601;44.490;11.400;2022-12-17T06:44:59;5.70;99.90
11095;DHT22;5601;44.490;11.400;2022-12-17T06:47:43;5.80;99.90
11095;DHT22;5601;44.490;11.400;2022-12-17T06:50:28;5.80;99.90
11095;DHT22;5601;44.490;11.400;2022-12-17T06:53:13;5.90;99.90
11095;DHT22;5601;44.490;11.400;2022-12-17T06:55:57;6.00;99.90
11095;DHT22;5601;44.490;11.400;2022-12-17T06:58:42;6.00;99.90
11095;DHT22;5601;44.490;11.400;2022-12-17T07:01:26;6.10;99.90
11095;DHT22;5601;44.490;11.400;2022-12-17T07:04:10;6.10;99.90
11095;DHT22;5601;44.490;11.400;2022-12-17T07:06:56;6.10;99.90
11095;DHT22;5601;44.490;11.400;2022-12-17T07:09:40;6.10;99.90
11095;DHT22;5601;44.490;11.400;2022-12-17T07:12:25;6.10;99.90
11095;DHT22;5601;44.490;11.400;2022-12-17T07:15:09;6.10;99.90
11095;DHT22;5601;44.490;11.400;2022-12-17T07:17:54;6.10;99.90
11095;DHT22;5601;44.490;11.400;2022-12-17T07:20:39;6.20;99.90
11095;DHT22;5601;44.490;11.400;2022-12-17T07:23:25;6.20;99.90
11095;DHT22;5601;44.490;11.400;2022-12-17T07:26:09;6.30;99.90
11095;DHT22;5601;44.490;11.400;2022-12-17T07:28:53;6.30;99.90
11095;DHT22;5601;44.490;11.400;2022-12-17T07:31:37;6.40;99.90
11095;DHT22;5601;44.490;11.400;2022-12-17T07:34:22;6.40;99.90
11095;DHT22;5601;44.490;11.400;2022-12-17T07:37:06;6.40;99.90
11095;DHT22;5601;44.490;11.400;2022-12-17T07:39:52;6.50;99.90
11095;DHT22;5601;44.490;11.400;2022-12-17T07:42:37;6.60;99.90
11095;DHT22;5601;44.490;11.400;2022-12-17T07:45:22;6.60;99.90
11095;DHT22;5601;44.490;11.400;2022-12-17T07:48:06;6.60;99.90
11095;DHT22;5601;44.490;11.400;2022-12-17T07:50:50;6.60;99.90
11095;DHT22;5601;44.490;11.400;2022-12-17T07:53:34;6.70;99.90
11095;DHT22;5601;44.490;11.400;2022-12-17T07:56:20;6.80;99.90
11095;DHT22;5601;44.490;11.400;2022-12-17T07:59:05;6.90;99.90
11095;DHT22;5601;44.490;11.400;2022-12-17T08:01:50;7.00;99.90
11095;DHT22;5601;44.490;11.400;2022-12-17T08:04:34;7.10;99.90
11095;DHT22;5601;44.490;11.400;2022-12-17T08:07:18;7.20;99.90
11095;DHT22;5601;44.490;11.400;2022-12-17T08:10:02;7.30;99.90
11095;DHT22;5601;44.490;11.400;2022-12-17T08:12:53;7.30;99.90
11095;DHT22;5601;44.490;11.400;2022-12-17T08:15:38;7.40;99.90
11095;DHT22;5601;44.490;11.400;2022-12-17T08:18:22;7.50;99.90
11095;DHT22;5601;44.490;11.400;2022-12-17T08:21:06;7.60;99.90
11095;DHT22;5601;44.490;11.400;2022-12-17T08:23:51;7.70;99.90
11095;DHT22;5601;44.490;11.400;2022-12-17T08:26:50;7.80;99.90
11095;DHT22;5601;44.490;11.400;2022-12-17T08:29:36;7.90;99.90
11095;DHT22;5601;44.490;11.400;2022-12-17T08:32:20;8.00;99.90
11095;DHT22;5601;44.490;11.400;2022-12-17T08:35:05;8.00;99.90
11095;DHT22;5601;44.490;11.400;2022-12-17T08:37:49;8.10;99.90
11095;DHT22;5601;44.490;11.400;2022-12-17T08:40:34;8.10;99.90
11095;DHT22;5601;44.490;11.400;2022-12-17T08:43:18;8.20;99.90
11095;DHT22;5601;44.490;11.400;2022-12-17T08:46:16;8.30;99.90
11095;DHT22;5601;44.490;11.400;2022-12-17T08:49:00;8.40;99.90
11095;DHT22;5601;44.490;11.400;2022-12-17T08:51:45;8.40;99.90
11095;DHT22;5601;44.490;11.400;2022-12-17T08:54:29;8.70;99.90
11095;DHT22;5601;44.490;11.400;2022-12-17T08:57:13;8.70;99.90
11095;DHT22;5601;44.490;11.400;2022-12-17T08:59:58;8.70;99.90
11095;DHT22;5601;44.490;11.400;2022-12-17T09:02:44;8.50;99.90
11095;DHT22;5601;44.490;11.400;2022-12-17T09:05:28;8.30;99.90
11095;DHT22;5601;44.490;11.400;2022-12-17T09:08:13;8.20;99.90
11095;DHT22;5601;44.490;11.400;2022-12-17T09:10:58;8.10;99.90
11095;DHT22;5601;44.490;11.400;2022-12-17T09:13:42;8.10;99.90
11095;DHT22;5601;44.490;11.400;2022-12-17T09:16:26;8.00;99.90
11095;DHT22;5601;44.490;11.400;2022-12-17T09:19:12;8.00;99.90
11095;DHT22;5601;44.490;11.400;2022-12-17T09:21:57;8.10;99.90
11095;DHT22;5601;44.490;11.400;2022-12-17T09:24:42;8.10;99.90
11095;DHT22;5601;44.490;11.400;2022-12-17T09:27:26;8.10;99.90
11095;DHT22;5601;44.490;11.400;2022-12-17T09:30:11;8.10;99.90
11095;DHT22;5601;44.490;11.400;2022-12-17T09:32:55;8.20;99.90
11095;DHT22;5601;44.490;11.400;2022-12-17T09:35:41;8.30;99.90
11095;DHT22;5601;44.490;11.400;2022-12-17T09:38:36;8.30;99.90
11095;DHT22;5601;44.490;11.400;2022-12-17T09:41:24;8.30;99.90
11095;DHT22;5601;44.490;11.400;2022-12-17T09:44:13;8.30;99.90
11095;DHT22;5601;44.490;11.400;2022-12-17T09:47:01;8.30;99.90
11095;DHT22;5601;44.490;11.400;2022-12-17T09:49:45;8.20;99.90
11095;DHT22;5601;44.490;11.400;2022-12-17T09:52:35;8.30;99.90
11095;DHT22;5601;44.490;11.400;2022-12-17T09:55:22;8.30;99.90
11095;DHT22;5601;44.490;11.400;2022-12-17T09:58:13;8.40;99.90
11095;DHT22;5601;44.490;11.400;2022-12-17T10:01:01;8.60;99.90
11095;DHT22;5601;44.490;11.400;2022-12-17T10:03:45;8.50;99.90
11095;DHT22;5601;44.490;11.400;2022-12-17T10:06:30;8.50;99.90
11095;DHT22;5601;44.490;11.400;2022-12-17T10:09:16;8.40;99.90
11095;DHT22;5601;44.490;11.400;2022-12-17T10:12:02;8.30;99.90
11095;DHT22;5601;44.490;11.400;2022-12-17T10:14:51;8.30;99.90
11095;DHT22;5601;44.490;11.400;2022-12-17T10:17:35;8.40;99.90
11095;DHT22;5601;44.490;11.400;2022-12-17T10:20:20;8.40;99.90
11095;DHT22;5601;44.490;11.400;2022-12-17T10:23:04;8.50;99.90
11095;DHT22;5601;44.490;11.400;2022-12-17T10:25:51;8.60;99.90
11095;DHT22;5601;44.490;11.400;2022-12-17T10:28:35;8.70;99.90
11095;DHT22;5601;44.490;11.400;2022-12-17T10:31:20;8.70;99.90
11095;DHT22;5601;44.490;11.400;2022-12-17T10:34:05;8.80;99.90
11095;DHT22;5601;44.490;11.400;2022-12-17T13:21:56;9.40;99.90
11095;DHT22;5601;44.490;11.400;2022-12-17T13:24:23;9.50;99.90
11095;DHT22;5601;44.490;11.400;2022-12-17T13:26:51;9.40;99.90
11095;DHT22;5601;44.490;11.400;2022-12-17T13:29:20;9.40;99.90
11095;DHT22;5601;44.490;11.400;2022-12-17T13:31:57;9.50;99.90
11095;DHT22;5601;44.490;11.400;2022-12-17T13:34:28;9.40;99.90
11095;DHT22;5601;44.490;11.400;2022-12-17T13:37:00;9.50;99.90
11095;DHT22;5601;44.490;11.400;2022-12-17T13:39:33;9.50;99.90
11095;DHT22;5601;44.490;11.400;2022-12-17T13:42:02;9.40;99.90
11095;DHT22;5601;44.490;11.400;2022-12-17T13:44:30;9.40;99.90
11095;DHT22;5601;44.490;11.400;2022-12-17T13:46:58;9.40;99.90
11095;DHT22;5601;44.490;11.400;2022-12-17T13:49:26;9.40;99.90
11095;DHT22;5601;44.490;11.400;2022-12-17T13:52:01;9.40;99.90
11095;DHT22;5601;44.490;11.400;2022-12-17T13:54:28;9.40;99.90
11095;DHT22;5601;44.490;11.400;2022-12-17T13:57:05;9.30;99.90
11095;DHT22;5601;44.490;11.400;2022-12-17T13:59:32;9.30;99.90
11095;DHT22;5601;44.490;11.400;2022-12-17T14:01:59;9.30;99.90
11095;DHT22;5601;44.490;11.400;2022-12-17T14:04:34;9.40;99.90
11095;DHT22;5601;44.490;11.400;2022-12-17T14:07:03;9.40;99.90
11095;DHT22;5601;44.490;11.400;2022-12-17T14:09:31;9.40;99.90
11095;DHT22;5601;44.490;11.400;2022-12-17T14:12:00;9.40;99.90
11095;DHT22;5601;44.490;11.400;2022-12-17T14:14:45;9.40;99.90
11095;DHT22;5601;44.490;11.400;2022-12-17T14:17:16;9.40;99.90
11095;DHT22;5601;44.490;11.400;2022-12-17T14:19:43;9.40;99.90
11095;DHT22;5601;44.490;11.400;2022-12-17T14:22:14;9.40;99.90
11095;DHT22;5601;44.490;11.400;2022-12-17T14:24:42;9.30;99.90
11095;DHT22;5601;44.490;11.400;2022-12-17T14:27:17;9.30;99.90
11095;DHT22;5601;44.490;11.400;2022-12-17T14:29:47;9.20;99.90
11095;DHT22;5601;44.490;11.400;2022-12-17T14:32:21;9.30;99.90
11095;DHT22;5601;44.490;11.400;2022-12-17T14:34:48;9.20;99.90
11095;DHT22;5601;44.490;11.400;2022-12-17T14:37:18;9.20;99.90
11095;DHT22;5601;44.490;11.400;2022-12-17T14:39:47;9.20;99.90
11095;DHT22;5601;44.490;11.400;2022-12-17T14:42:15;9.20;99.90
11095;DHT22;5601;44.490;11.400;2022-12-17T14:44:54;9.20;99.90
11095;DHT22;5601;44.490;11.400;2022-12-17T14:47:23;9.20;99.90
11095;DHT22;5601;44.490;11.400;2022-12-17T14:49:55;9.20;99.90
11095;DHT22;5601;44.490;11.400;2022-12-17T14:52:29;9.20;99.90
11095;DHT22;5601;44.490;11.400;2022-12-17T14:54:58;9.20;99.90
11095;DHT22;5601;44.490;11.400;2022-12-17T14:57:25;9.20;99.90
11095;DHT22;5601;44.490;11.400;2022-12-17T14:59:53;9.10;99.90
11095;DHT22;5601;44.490;11.400;2022-12-17T15:02:21;9.10;99.90
11095;DHT22;5601;44.490;11.400;2022-12-17T15:04:50;9.10;99.90
11095;DHT22;5601;44.490;11.400;2022-12-17T15:07:20;9.00;99.90
11095;DHT22;5601;44.490;11.400;2022-12-17T15:09:50;9.00;99.90
11095;DHT22;5601;44.490;11.400;2022-12-17T15:12:17;9.00;99.90
11095;DHT22;5601;44.490;11.400;2022-12-17T15:14:45;9.00;99.90
11095;DHT22;5601;44.490;11.400;2022-12-17T15:17:12;9.00;99.90
11095;DHT22;5601;44.490;11.400;2022-12-17T15:19:39;9.00;99.90
11095;DHT22;5601;44.490;11.400;2022-12-17T15:22:09;8.90;99.90
11095;DHT22;5601;44.490;11.400;2022-12-17T15:24:37;8.90;99.90
11095;DHT22;5601;44.490;11.400;2022-12-17T15:27:07;9.00;99.90
11095;DHT22;5601;44.490;11.400;2022-12-17T15:29:34;8.90;99.90
11095;DHT22;5601;44.490;11.400;2022-12-17T15:32:01;8.90;99.90
11095;DHT22;5601;44.490;11.400;2022-12-17T15:34:28;8.90;99.90
11095;DHT22;5601;44.490;11.400;2022-12-17T15:36:55;8.80;99.90
11095;DHT22;5601;44.490;11.400;2022-12-17T15:39:22;8.80;99.90
11095;DHT22;5601;44.490;11.400;2022-12-17T15:41:50;8.80;99.90
11095;DHT22;5601;44.490;11.400;2022-12-17T15:44:36;8.80;99.90
11095;DHT22;5601;44.490;11.400;2022-12-17T15:47:03;8.70;99.90
11095;DHT22;5601;44.490;11.400;2022-12-17T15:49:29;8.70;99.90
11095;DHT22;5601;44.490;11.400;2022-12-17T15:51:56;8.70;99.90
11095;DHT22;5601;44.490;11.400;2022-12-17T15:54:24;8.70;99.90
11095;DHT22;5601;44.490;11.400;2022-12-17T15:56:51;8.60;99.90
11095;DHT22;5601;44.490;11.400;2022-12-17T15:59:18;8.60;99.90
11095;DHT22;5601;44.490;11.400;2022-12-17T16:01:47;8.60;99.90
11095;DHT22;5601;44.490;11.400;2022-12-17T16:04:14;8.60;99.90
11095;DHT22;5601;44.490;11.400;2022-12-17T16:06:41;8.60;99.90
11095;DHT22;5601;44.490;11.400;2022-12-17T16:09:08;8.50;99.90
11095;DHT22;5601;44.490;11.400;2022-12-17T16:11:35;8.50;99.90
11095;DHT22;5601;44.490;11.400;2022-12-17T16:14:02;8.60;99.90
11095;DHT22;5601;44.490;11.400;2022-12-17T16:16:29;8.50;99.90
11095;DHT22;5601;44.490;11.400;2022-12-17T16:18:57;8.50;99.90
11095;DHT22;5601;44.490;11.400;2022-12-17T16:21:26;8.50;99.90
11095;DHT22;5601;44.490;11.400;2022-12-17T16:23:53;8.50;99.90
11095;DHT22;5601;44.490;11.400;2022-12-17T16:26:20;8.50;99.90
11095;DHT22;5601;44.490;11.400;2022-12-17T16:28:47;8.50;99.90
11095;DHT22;5601;44.490;11.400;2022-12-17T16:31:14;8.50;99.90
11095;DHT22;5601;44.490;11.400;2022-12-17T16:33:42;8.50;99.90
11095;DHT22;5601;44.490;11.400;2022-12-17T16:36:14;8.50;99.90
11095;DHT22;5601;44.490;11.400;2022-12-17T16:38:42;8.50;99.90
11095;DHT22;5601;44.490;11.400;2022-12-17T16:41:10;8.50;99.90
11095;DHT22;5601;44.490;11.400;2022-12-17T16:43:37;8.50;99.90
11095;DHT22;5601;44.490;11.400;2022-12-17T16:46:04;8.40;99.90
11095;DHT22;5601;44.490;11.400;2022-12-17T16:48:35;8.40;99.90
11095;DHT22;5601;44.490;11.400;2022-12-17T16:51:03;8.40;99.90
11095;DHT22;5601;44.490;11.400;2022-12-17T16:53:42;8.40;99.90
11095;DHT22;5601;44.490;11.400;2022-12-17T16:56:13;8.40;99.90
11095;DHT22;5601;44.490;11.400;2022-12-17T16:58:52;8.40;99.90
11095;DHT22;5601;44.490;11.400;2022-12-17T17:01:19;8.40;99.90
11095;DHT22;5601;44.490;11.400;2022-12-17T17:03:47;8.40;99.90
11095;DHT22;5601;44.490;11.400;2022-12-17T17:06:14;8.40;99.90
11095;DHT22;5601;44.490;11.400;2022-12-17T17:08:42;8.40;99.90
11095;DHT22;5601;44.490;11.400;2022-12-17T17:11:10;8.40;99.90
11095;DHT22;5601;44.490;11.400;2022-12-17T17:13:37;8.30;99.90
11095;DHT22;5601;44.490;11.400;2022-12-17T17:16:05;8.30;99.90
11095;DHT22;5601;44.490;11.400;2022-12-17T17:18:32;8.30;99.90
11095;DHT22;5601;44.490;11.400;2022-12-17T17:23:46;8.30;99.90
11095;DHT22;5601;44.490;11.400;2022-12-17T17:26:13;8.30;99.90
11095;DHT22;5601;44.490;11.400;2022-12-17T17:28:41;8.30;99.90
11095;DHT22;5601;44.490;11.400;2022-12-17T17:31:09;8.30;99.90
11095;DHT22;5601;44.490;11.400;2022-12-17T17:33:37;8.30;99.90
11095;DHT22;5601;44.490;11.400;2022-12-17T17:36:04;8.30;99.90
11095;DHT22;5601;44.490;11.400;2022-12-17T17:38:32;8.40;99.90
11095;DHT22;5601;44.490;11.400;2022-12-17T17:41:01;8.30;99.90
11095;DHT22;5601;44.490;11.400;2022-12-17T17:43:28;8.30;99.90
11095;DHT22;5601;44.490;11.400;2022-12-17T17:45:55;8.30;99.90
11095;DHT22;5601;44.490;11.400;2022-12-17T17:48:22;8.30;99.90
11095;DHT22;5601;44.490;11.400;2022-12-17T17:50:58;8.30;99.90
11095;DHT22;5601;44.490;11.400;2022-12-17T17:53:25;8.30;99.90
11095;DHT22;5601;44.490;11.400;2022-12-17T17:55:52;8.30;99.90
11095;DHT22;5601;44.490;11.400;2022-12-17T17:58:21;8.40;99.90
11095;DHT22;5601;44.490;11.400;2022-12-17T18:00:47;8.30;99.90
11095;DHT22;5601;44.490;11.400;2022-12-17T18:03:14;8.30;99.90
11095;DHT22;5601;44.490;11.400;2022-12-17T18:05:42;8.30;99.90
11095;DHT22;5601;44.490;11.400;2022-12-17T18:08:09;8.30;99.90
11095;DHT22;5601;44.490;11.400;2022-12-17T18:10:36;8.30;99.90
11095;DHT22;5601;44.490;11.400;2022-12-17T18:13:03;8.30;99.90
11095;DHT22;5601;44.490;11.400;2022-12-17T18:15:49;8.30;99.90
11095;DHT22;5601;44.490;11.400;2022-12-17T18:18:16;8.30;99.90
11095;DHT22;5601;44.490;11.400;2022-12-17T18:20:44;8.30;99.90
11095;DHT22;5601;44.490;11.400;2022-12-17T18:23:10;8.30;99.90
11095;DHT22;5601;44.490;11.400;2022-12-17T18:25:38;8.30;99.90
11095;DHT22;5601;44.490;11.400;2022-12-17T18:28:05;8.30;99.90
11095;DHT22;5601;44.490;11.400;2022-12-17T18:30:31;8.30;99.90
11095;DHT22;5601;44.490;11.400;2022-12-17T18:33:00;8.30;99.90
11095;DHT22;5601;44.490;11.400;2022-12-17T18:35:27;8.30;99.90
11095;DHT22;5601;44.490;11.400;2022-12-17T18:37:54;8.30;99.90
11095;DHT22;5601;44.490;11.400;2022-12-17T18:40:21;8.30;99.90
11095;DHT22;5601;44.490;11.400;2022-12-17T18:42:48;8.30;99.90
11095;DHT22;5601;44.490;11.400;2022-12-17T18:45:35;8.30;99.90
11095;DHT22;5601;44.490;11.400;2022-12-17T18:48:04;8.30;99.90
11095;DHT22;5601;44.490;11.400;2022-12-17T18:50:32;8.20;99.90
11095;DHT22;5601;44.490;11.400;2022-12-17T18:53:00;8.20;99.90
11095;DHT22;5601;44.490;11.400;2022-12-17T18:55:27;8.20;99.90
11095;DHT22;5601;44.490;11.400;2022-12-17T18:57:54;8.20;99.90
11095;DHT22;5601;44.490;11.400;2022-12-17T19:00:21;8.20;99.90
11095;DHT22;5601;44.490;11.400;2022-12-17T19:02:48;8.20;99.90
11095;DHT22;5601;44.490;11.400;2022-12-17T19:05:17;8.20;99.90
11095;DHT22;5601;44.490;11.400;2022-12-17T19:07:44;8.20;99.90
11095;DHT22;5601;44.490;11.400;2022-12-17T19:10:10;8.20;99.90
11095;DHT22;5601;44.490;11.400;2022-12-17T19:12:37;8.20;99.90
11095;DHT22;5601;44.490;11.400;2022-12-17T19:15:05;8.20;99.90
11095;DHT22;5601;44.490;11.400;2022-12-17T19:17:32;8.20;99.90
11095;DHT22;5601;44.490;11.400;2022-12-17T20:53:12;8.20;99.90
11095;DHT22;5601;44.490;11.400;2022-12-17T20:55:39;8.20;99.90
11095;DHT22;5601;44.490;11.400;2022-12-17T20:58:06;8.20;99.90
11095;DHT22;5601;44.490;11.400;2022-12-17T21:00:33;8.20;99.90
11095;DHT22;5601;44.490;11.400;2022-12-17T21:03:00;8.20;99.90
11095;DHT22;5601;44.490;11.400;2022-12-17T21:05:27;8.20;99.90
11095;DHT22;5601;44.490;11.400;2022-12-17T21:07:54;8.20;99.90
11095;DHT22;5601;44.490;11.400;2022-12-17T21:10:23;8.20;99.90
11095;DHT22;5601;44.490;11.400;2022-12-17T21:12:50;8.20;99.90
11095;DHT22;5601;44.490;11.400;2022-12-17T21:15:34;8.20;99.90
11095;DHT22;5601;44.490;11.400;2022-12-17T21:18:01;8.20;99.90